Time;durP1;ratioP1;P1;durP2;ratioP2;P2;SDS_P1;SDS_P2;PMS_P1;PMS_P2;Temp;Humidity;BMP_temperature;BMP_pressure;BME280_temperature;BME280_humidity;BME280_pressure;Samples;Min_cycle;Max_cycle;Signal;HPM_P1;HPM_P2
2023/10/28 00:03:35;;;;;;;7.20;5.60;;;;;;;20.85;49.60;96543.16;10283736;28;20021;-55
2023/10/28 00:08:35;;;;;;;7.05;5.85;;;;;;;20.64;49.82;96513.69;10283827;28;20073;-54
2023/10/28 00:13:34;;;;;;;6.22;5.70;;;;;;;20.91;49.47;96547.19;10283219;28;20069;-55
2023/10/28 00:18:33;;;;;;;7.50;5.43;;;;;;;20.68;49.89;96525.75;10282216;28;20030;-54
2023/10/28 00:23:33;;;;;;;7.68;5.47;;;;;;;20.84;49.69;96548.50;10282869;28;20121;-55
2023/10/28 00:28:33;;;;;;;6.60;5.43;;;;;;;20.84;49.89;96549.34;10283065;28;20480;-52
2023/10/28 00:33:34;;;;;;;6.53;5.45;;;;;;;20.80;49.98;96544.38;10287622;28;20125;-52
2023/10/28 00:38:33;;;;;;;6.72;5.30;;;;;;;20.66;50.23;96553.97;10288963;28;20654;-53
2023/10/28 00:43:32;;;;;;;7.40;5.13;;;;;;;20.77;50.01;96550.66;10289987;28;20507;-53
2023/10/28 00:48:31;;;;;;;10.02;5.63;;;;;;;20.73;50.33;96565.00;10290129;28;20141;-54
2023/10/28 00:53:31;;;;;;;5.80;5.30;;;;;;;20.63;50.41;96567.34;10288413;28;20038;-53
2023/10/28 00:58:30;;;;;;;6.15;5.55;;;;;;;20.46;50.63;96559.59;10288077;28;20084;-54
2023/10/28 01:03:30;;;;;;;6.55;5.95;;;;;;;20.49;50.44;96581.34;10288302;28;20073;-54
2023/10/28 01:08:29;;;;;;;8.65;6.43;;;;;;;20.43;50.82;96591.41;10288002;28;20092;-55
2023/10/28 01:13:28;;;;;;;6.57;5.65;;;;;;;20.06;52.46;96593.50;10287399;28;20132;-55
2023/10/28 01:18:27;;;;;;;6.85;5.40;;;;;;;19.61;53.81;96600.47;10288161;28;20487;-55
2023/10/28 01:23:26;;;;;;;6.45;5.85;;;;;;;19.21;55.21;96594.72;10288264;28;20061;-53
2023/10/28 01:28:25;;;;;;;8.35;6.50;;;;;;;18.88;56.39;96590.34;10287182;28;20068;-55
2023/10/28 01:33:24;;;;;;;6.10;5.50;;;;;;;18.70;56.93;96602.66;10318250;28;20051;-53
2023/10/28 01:38:23;;;;;;;5.85;5.40;;;;;;;18.49;57.49;96606.38;10286303;28;20069;-53
2023/10/28 01:43:22;;;;;;;5.78;5.30;;;;;;;18.33;58.54;96620.25;10287130;28;20088;-53
2023/10/28 01:48:21;;;;;;;8.07;5.40;;;;;;;18.15;59.32;96618.56;10286309;28;20058;-52
2023/10/28 01:53:20;;;;;;;9.30;5.50;;;;;;;18.00;59.44;96638.53;10286307;28;20045;-53
2023/10/28 01:58:19;;;;;;;;;;;;;;;17.75;61.21;96644.06;10286694;28;20041;-52
2023/10/28 02:03:18;;;;;;;5.93;5.30;;;;;;;17.63;61.57;96650.75;10285626;28;19945;-53
2023/10/28 02:08:17;;;;;;;5.40;4.90;;;;;;;17.49;62.03;96658.41;10285523;28;20089;-54
2023/10/28 02:13:16;;;;;;;5.82;5.18;;;;;;;17.43;62.31;96663.97;10285356;28;20117;-53
2023/10/28 02:18:18;;;;;;;5.40;4.90;;;;;;;17.35;62.51;96662.56;10285356;28;20103;-54
2023/10/28 02:23:17;;;;;;;5.47;4.88;;;;;;;17.25;62.98;96666.50;10285986;28;20069;-53
2023/10/28 02:28:16;;;;;;;6.22;5.70;;;;;;;17.22;63.41;96689.38;10285999;28;20133;-52
2023/10/28 02:33:15;;;;;;;6.13;5.50;;;;;;;17.19;63.67;96693.00;10284460;28;20069;-53
2023/10/28 02:38:15;;;;;;;6.72;5.10;;;;;;;17.16;64.13;96690.50;10284274;28;20038;-53
2023/10/28 02:43:14;;;;;;;7.88;5.35;;;;;;;17.13;64.23;96694.09;10284517;28;20077;-53
2023/10/28 02:48:13;;;;;;;6.22;5.70;;;;;;;17.18;63.60;96690.44;10284275;28;20124;-51
2023/10/28 02:53:11;;;;;;;;;;;;;;;17.11;64.08;96689.84;10283329;28;20180;-52
2023/10/28 02:58:10;;;;;;;6.53;5.00;;;;;;;17.03;64.08;96690.19;10284108;28;19979;-53
2023/10/28 03:03:09;;;;;;;;;;;;;;;16.96;64.43;96691.38;10284179;28;20034;-52
2023/10/28 03:08:08;;;;;;;7.97;5.55;;;;;;;16.81;64.98;96686.78;10283320;28;19925;-52
2023/10/28 03:13:07;;;;;;;7.38;5.90;;;;;;;16.67;65.75;96706.53;10283661;28;20062;-53
2023/10/28 03:18:06;;;;;;;;;;;;;;;16.53;66.45;96706.25;10283720;28;20117;-52
2023/10/28 03:23:05;;;;;;;9.23;6.35;;;;;;;16.44;66.80;96732.81;10282880;28;19940;-52
2023/10/28 03:28:04;;;;;;;6.95;5.65;;;;;;;16.40;68.34;96729.50;10284747;28;20085;-53
2023/10/28 03:33:03;;;;;;;5.63;5.13;;;;;;;16.19;68.72;96735.59;10282821;28;20437;-54
2023/10/28 03:38:02;;;;;;;;;;;;;;;16.13;69.40;96756.78;10283318;28;20116;-54
2023/10/28 03:43:01;;;;;;;8.15;6.18;;;;;;;16.06;68.70;96759.63;10283216;28;19960;-54
2023/10/28 03:48:01;;;;;;;7.80;5.63;;;;;;;15.86;70.12;96762.16;10283613;28;20152;-54
2023/10/28 03:53:00;;;;;;;7.85;5.65;;;;;;;15.89;70.08;96780.34;10282734;28;20133;-54
2023/10/28 03:57:58;;;;;;;;;;;;;;;15.83;70.62;96793.66;10283634;28;20145;-53
2023/10/28 04:02:57;;;;;;;6.00;5.50;;;;;;;15.73;71.06;96779.19;10283038;28;19951;-54
2023/10/28 04:07:56;;;;;;;7.05;5.60;;;;;;;15.84;71.07;96782.31;10287782;28;20519;-54
2023/10/28 04:12:55;;;;;;;;;;;;;;;15.83;71.32;96802.38;10290970;28;20454;-54
2023/10/28 04:17:54;;;;;;;6.43;5.78;;;;;;;15.88;71.60;96792.59;10291054;28;19913;-54
2023/10/28 04:22:53;;;;;;;;;;;;;;;15.92;71.87;96798.53;10289818;28;20117;-54
2023/10/28 04:27:52;;;;;;;5.75;5.28;;;;;;;15.99;72.07;96791.31;10290707;28;19913;-54
2023/10/28 04:32:53;;;;;;;;;;;;;;;16.13;71.53;96801.25;10290660;28;20092;-54
2023/10/28 04:37:53;;;;;;;9.43;5.88;;;;;;;16.21;71.71;96804.44;10288902;28;19973;-52
2023/10/28 04:42:52;;;;;;;7.25;6.55;;;;;;;16.16;71.51;96817.72;10289491;28;20062;-51
2023/10/28 04:47:51;;;;;;;7.55;6.60;;;;;;;16.12;70.99;96812.66;10288852;28;20134;-54
2023/10/28 04:52:50;;;;;;;;;;;;;;;16.06;71.36;96819.81;10288442;28;20113;-54
2023/10/28 04:57:49;;;;;;;7.25;5.93;;;;;;;16.03;71.08;96813.84;10288982;28;19917;-52
2023/10/28 05:02:48;;;;;;;7.78;5.70;;;;;;;15.97;71.32;96814.06;10288073;28;20062;-53
2023/10/28 05:07:47;;;;;;;;;;;;;;;15.88;71.69;96815.28;10288112;28;20476;-52
2023/10/28 05:12:46;;;;;;;7.32;5.93;;;;;;;15.81;72.24;96809.44;10287690;28;19999;-52
2023/10/28 05:17:45;;;;;;;10.75;6.78;;;;;;;15.78;72.64;96819.09;10287436;28;20104;-52
2023/10/28 05:22:44;;;;;;;;;;;;;;;15.60;74.26;96842.41;10319088;28;20128;-54
2023/10/28 05:27:43;;;;;;;13.88;8.13;;;;;;;15.50;74.67;96851.47;10288259;28;19913;-53
2023/10/28 05:32:42;;;;;;;;;;;;;;;15.46;74.14;96849.91;10287174;28;20140;-53
2023/10/28 05:37:41;;;;;;;13.50;8.70;;;;;;;15.41;74.44;96859.63;10286612;28;20011;-52
2023/10/28 05:42:40;;;;;;;;;;;;;;;15.35;75.05;96881.63;10286425;28;20033;-52
2023/10/28 05:47:39;;;;;;;10.13;7.77;;;;;;;15.41;74.87;96883.16;10286718;28;19945;-53
2023/10/28 05:52:38;;;;;;;13.98;8.48;;;;;;;15.54;74.35;96884.47;10286775;28;20133;-53
2023/10/28 05:57:39;;;;;;;9.20;7.95;;;;;;;15.36;74.48;96851.09;10285883;28;20061;-52
2023/10/28 06:02:39;;;;;;;10.93;7.88;;;;;;;15.77;74.04;96906.34;10286203;28;20116;-53
2023/10/28 06:07:38;;;;;;;11.65;8.13;;;;;;;15.93;73.54;96901.44;10285516;28;20088;-52
2023/10/28 06:12:37;;;;;;;;;;;;;;;16.09;72.96;96921.78;10285736;28;20254;-54
2023/10/28 06:17:36;;;;;;;12.83;9.33;;;;;;;16.22;72.32;96918.72;10285559;28;19952;-55
2023/10/28 06:22:34;;;;;;;;;;;;;;;16.38;72.41;96929.47;10285283;28;20061;-54
2023/10/28 06:27:34;;;;;;;8.93;8.13;;;;;;;16.60;71.31;96942.59;10284132;28;19913;-54
2023/10/28 06:32:33;;;;;;;7.50;6.90;;;;;;;16.71;71.09;96950.91;10286094;28;20120;-54
2023/10/28 06:37:32;;;;;;;;;;;;;;;16.88;70.82;96952.91;10285277;28;20121;-51
2023/10/28 06:42:31;;;;;;;6.68;6.13;;;;;;;17.10;70.31;96960.78;10283561;28;20467;-52
2023/10/28 06:47:30;;;;;;;;;;;;;;;17.23;70.00;96967.22;10284973;28;20533;-54
2023/10/28 06:52:29;;;;;;;9.00;7.10;;;;;;;17.41;69.33;96970.03;10283815;28;19971;-54
2023/10/28 06:57:30;;;;;;;;;;;;;;;17.56;68.78;96966.75;10287425;28;20456;-53
2023/10/28 07:02:29;;;;;;;7.53;6.80;;;;;;;17.70;68.34;96977.53;10284807;28;20532;-54
2023/10/28 07:07:28;;;;;;;6.50;5.80;;;;;;;17.84;67.78;96970.88;10284280;28;20563;-54
2023/10/28 07:12:28;;;;;;;8.05;5.82;;;;;;;17.95;67.47;96971.28;10290585;28;20548;-53
2023/10/28 07:17:27;;;;;;;6.55;5.95;;;;;;;17.92;67.45;96971.41;10284630;28;20492;-54
2023/10/28 07:22:26;;;;;;;6.57;5.97;;;;;;;18.02;67.02;96971.88;10282808;28;20395;-53
2023/10/28 07:27:26;;;;;;;;;;;;;;;18.08;66.46;96982.97;10284429;28;20041;-53
2023/10/28 07:32:25;;;;;;;;;;;;;;;18.17;66.09;96977.31;10283271;28;20016;-53
2023/10/28 07:37:24;;;;;;;6.93;6.20;;;;;;;18.24;65.17;96967.38;10283814;28;20262;-52
2023/10/28 07:42:23;;;;;;;6.97;6.40;;;;;;;18.38;64.87;96972.00;10288785;28;20780;-53
2023/10/28 07:47:22;;;;;;;7.55;6.82;;;;;;;18.51;64.47;96959.19;10288120;28;20521;-53
2023/10/28 07:52:21;;;;;;;7.10;6.45;;;;;;;18.58;63.96;96957.97;10290636;28;20040;-51
2023/10/28 07:57:20;;;;;;;8.35;6.80;;;;;;;18.75;63.24;96965.13;10290864;28;20065;-54
2023/10/28 08:02:18;;;;;;;6.80;6.20;;;;;;;19.02;62.31;96958.56;10290065;28;20038;-53
2023/10/28 08:07:17;;;;;;;7.03;6.32;;;;;;;19.07;61.88;96953.09;10289749;28;20505;-53
2023/10/28 08:12:16;;;;;;;7.80;6.93;;;;;;;19.14;61.27;96948.38;10286009;28;20129;-53
2023/10/28 08:17:16;;;;;;;7.95;6.47;;;;;;;19.39;60.63;96962.06;10321338;28;20044;-54
2023/10/28 08:22:15;;;;;;;7.28;6.65;;;;;;;19.57;59.92;96962.94;10287571;28;20463;-53
2023/10/28 08:27:14;;;;;;;7.50;6.75;;;;;;;19.87;59.45;96957.91;10289728;28;20088;-54
2023/10/28 08:32:13;;;;;;;7.80;7.05;;;;;;;20.03;58.12;96970.31;10289269;28;20117;-53
2023/10/28 08:37:13;;;;;;;13.52;6.80;;;;;;;20.19;57.38;96970.31;10289121;28;20042;-53
2023/10/28 08:42:13;;;;;;;10.45;7.43;;;;;;;20.14;56.71;96935.47;10289635;28;20486;-54
2023/10/28 08:47:12;;;;;;;13.95;7.80;;;;;;;20.61;56.42;96964.63;10288712;28;20068;-54
2023/10/28 08:52:17;;;;;;;10.23;6.82;;;;;;;20.78;55.83;96970.75;10286733;28;20045;-53
2023/10/28 08:57:17;;;;;;;13.25;7.15;;;;;;;21.08;54.49;96979.63;10288875;28;20085;-53
2023/10/28 09:02:19;;;;;;;11.57;6.90;;;;;;;21.37;53.58;96976.31;10288158;28;20054;-53
2023/10/28 09:07:19;;;;;;;9.27;7.00;;;;;;;21.65;52.77;96963.22;10304997;28;20112;-53
2023/10/28 09:12:18;;;;;;;10.30;6.80;;;;;;;21.74;50.96;96960.03;10291158;28;20227;-53
2023/10/28 09:17:20;;;;;;;7.40;6.63;;;;;;;21.95;50.65;96957.91;10290364;28;20447;-54
2023/10/28 09:22:20;;;;;;;7.35;6.65;;;;;;;22.03;49.18;96946.91;10289397;28;20254;-53
2023/10/28 09:27:19;;;;;;;7.47;6.68;;;;;;;22.47;47.97;96940.72;10290084;28;20096;-54
2023/10/28 09:32:19;;;;;;;9.25;7.75;;;;;;;22.74;46.16;96946.13;10289326;28;20491;-53
2023/10/28 09:37:18;;;;;;;10.13;7.20;;;;;;;23.05;45.75;96938.88;10286189;28;20080;-54
2023/10/28 09:42:18;;;;;;;8.68;6.82;;;;;;;23.26;45.62;96941.09;10285237;28;20036;-54
2023/10/28 09:47:22;;;;;;;10.68;6.63;;;;;;;23.35;44.73;96938.69;10285938;28;20088;-53
2023/10/28 09:52:24;;;;;;;9.25;6.63;;;;;;;23.54;43.21;96929.56;10286368;28;20077;-54
2023/10/28 09:57:23;;;;;;;12.88;7.45;;;;;;;23.70;42.40;96921.41;10286642;28;20085;-54
2023/10/28 10:02:38;;;;;;;8.32;6.82;;;;;;;24.01;43.06;96918.38;10284818;28;20109;-54
2023/10/28 10:07:37;;;;;;;8.27;7.07;;;;;;;24.22;42.66;96915.25;10285202;28;20136;-52
2023/10/28 10:12:36;;;;;;;7.72;6.68;;;;;;;24.38;41.49;96907.91;10285983;28;20092;-54
2023/10/28 10:18:04;;;;;;;8.20;6.63;;;;;;;24.30;39.96;96899.63;10285246;28;20133;-53
2023/10/28 10:23:03;;;;;;;12.20;9.55;;;;;;;24.54;39.81;96893.53;10285966;28;20483;-54
2023/10/28 10:28:19;;;;;;;10.77;6.90;;;;;;;24.46;38.38;96886.97;10285705;28;20087;-54
2023/10/28 10:33:25;;;;;;;10.00;6.13;;;;;;;24.31;38.41;96881.91;10284587;28;20519;-55
2023/10/28 10:38:29;;;;;;;9.98;6.90;;;;;;;24.71;38.04;96885.25;10284929;28;20124;-54
2023/10/28 10:43:31;;;;;;;11.80;7.53;;;;;;;24.94;37.33;96880.09;10283935;28;20092;-54
2023/10/28 10:48:33;;;;;;;8.48;7.35;;;;;;;24.93;37.18;96879.25;10284992;28;20080;-53
2023/10/28 10:53:41;;;;;;;8.43;7.50;;;;;;;25.04;36.52;96843.97;10284708;28;20093;-54
2023/10/28 10:58:40;;;;;;;9.02;6.93;;;;;;;25.42;36.60;96864.13;10284710;28;20096;-54
2023/10/28 11:03:40;;;;;;;11.20;7.70;;;;;;;25.47;35.45;96865.47;10283969;28;20124;-54
2023/10/28 11:08:40;;;;;;;8.45;6.57;;;;;;;25.41;35.54;96867.75;10282790;28;20092;-54
2023/10/28 11:13:39;;;;;;;10.00;7.75;;;;;;;25.37;34.94;96855.69;10283923;28;20117;-55
2023/10/28 11:18:40;;;;;;;11.40;8.05;;;;;;;25.67;34.42;96850.72;10282843;28;20101;-55
2023/10/28 11:23:39;;;;;;;8.15;7.10;;;;;;;25.59;34.62;96842.47;10284461;28;20482;-53
2023/10/28 11:28:39;;;;;;;10.68;7.80;;;;;;;26.12;33.05;96848.09;10283294;28;20168;-57
2023/10/28 11:33:40;;;;;;;12.50;8.13;;;;;;;26.24;32.34;96851.66;10283559;28;20485;-52
2023/10/28 11:38:39;;;;;;;8.00;7.20;;;;;;;26.19;31.79;96856.47;10282035;28;20108;-53
2023/10/28 11:43:39;;;;;;;13.45;7.85;;;;;;;26.37;32.42;96862.19;10281572;28;20117;-54
2023/10/28 11:48:38;;;;;;;8.18;7.50;;;;;;;26.52;32.04;96857.44;10281942;28;20072;-54
2023/10/28 11:53:41;;;;;;;8.80;7.07;;;;;;;26.19;31.68;96834.34;10283295;28;20710;-54
2023/10/28 11:58:40;;;;;;;10.05;7.20;;;;;;;26.20;32.08;96860.81;10283474;28;20081;-55
2023/10/28 12:03:39;;;;;;;10.52;7.70;;;;;;;26.07;32.15;96857.44;10282611;28;20037;-56
2023/10/28 12:08:39;;;;;;;7.40;6.70;;;;;;;26.16;31.74;96856.72;10283104;28;20121;-55
2023/10/28 12:13:38;;;;;;;11.07;7.72;;;;;;;26.08;30.47;96861.75;10282014;28;20064;-54
2023/10/28 12:18:37;;;;;;;7.75;7.10;;;;;;;25.82;31.85;96867.28;10282827;28;20077;-53
2023/10/28 12:23:36;;;;;;;9.63;7.93;;;;;;;25.66;33.21;96872.91;10282271;28;20117;-53
2023/10/28 12:28:35;;;;;;;9.18;6.97;;;;;;;25.42;33.95;96870.28;10286798;28;20077;-53
2023/10/28 12:33:34;;;;;;;13.02;7.05;;;;;;;25.11;34.25;96877.91;10288604;28;20108;-53
2023/10/28 12:38:34;;;;;;;9.45;6.75;;;;;;;25.18;33.26;96875.63;10289121;28;20109;-54
2023/10/28 12:43:33;;;;;;;8.85;6.28;;;;;;;25.50;33.34;96872.38;10289144;28;21282;-54
2023/10/28 12:48:35;;;;;;;7.50;6.70;;;;;;;25.59;33.07;96882.31;10288808;28;20073;-54
2023/10/28 12:53:33;;;;;;;11.50;6.95;;;;;;;25.53;33.29;96888.09;10288971;28;20117;-55
2023/10/28 12:58:32;;;;;;;9.25;5.72;;;;;;;25.53;33.77;96888.09;10288815;28;20037;-54
2023/10/28 13:03:31;;;;;;;7.88;5.63;;;;;;;25.65;33.08;96889.84;10288572;28;20468;-54
2023/10/28 13:08:32;;;;;;;8.18;5.82;;;;;;;25.54;33.30;96897.78;10287948;28;20431;-54
2023/10/28 13:13:31;;;;;;;8.98;5.80;;;;;;;25.33;33.55;96916.97;10287803;28;20137;-55
2023/10/28 13:18:30;;;;;;;9.80;5.90;;;;;;;25.42;32.73;96907.47;10287328;28;20053;-55
2023/10/28 13:23:29;;;;;;;8.77;5.13;;;;;;;25.52;32.71;96907.63;10287121;28;20045;-54
2023/10/28 13:28:27;;;;;;;9.43;5.38;;;;;;;25.53;33.01;96912.84;10287545;28;20108;-54
2023/10/28 13:33:26;;;;;;;7.32;4.80;;;;;;;25.54;32.06;96911.06;10287523;28;20479;-53
2023/10/28 13:38:25;;;;;;;6.88;5.40;;;;;;;25.52;31.49;96912.94;10286484;28;20142;-54
2023/10/28 13:43:25;;;;;;;20.10;16.63;;;;;;;25.53;31.68;96906.69;10287151;28;20465;-53
2023/10/28 13:48:25;;;;;;;15.52;11.05;;;;;;;25.47;31.44;96920.41;10287355;28;20077;-53
2023/10/28 13:53:24;;;;;;;11.63;6.32;;;;;;;25.29;31.01;96896.06;10285900;28;20128;-54
2023/10/28 13:58:23;;;;;;;18.30;7.35;;;;;;;25.28;31.67;96924.44;10286287;28;20052;-55
2023/10/28 14:03:23;;;;;;;8.50;6.47;;;;;;;25.17;31.07;96927.03;10285585;28;20136;-54
2023/10/28 14:08:22;;;;;;;10.90;7.10;;;;;;;25.10;31.32;96933.75;10285971;28;20129;-55
2023/10/28 14:13:21;;;;;;;8.00;6.75;;;;;;;25.07;31.33;96928.66;10285372;28;20422;-54
2023/10/28 14:18:20;;;;;;;17.52;6.90;;;;;;;24.97;31.24;96933.81;10286439;28;20049;-54
2023/10/28 14:23:19;;;;;;;94.43;84.03;;;;;;;24.95;32.23;96949.00;10284960;28;20032;-55
2023/10/28 14:28:18;;;;;;;29.27;8.27;;;;;;;24.87;32.21;96949.53;10285002;28;20073;-55
2023/10/28 14:33:17;;;;;;;195.68;20.95;;;;;;;24.72;32.71;96955.91;10284912;28;20052;-54
2023/10/28 14:38:16;;;;;;;100.70;13.85;;;;;;;24.62;32.78;96953.06;10316230;28;20049;-55
2023/10/28 14:43:15;;;;;;;14.10;7.40;;;;;;;24.51;32.87;96966.22;10285013;28;20069;-54
2023/10/28 14:48:14;;;;;;;15.68;7.55;;;;;;;24.34;33.22;96964.75;10284333;28;20120;-53
2023/10/28 14:53:15;;;;;;;13.07;7.20;;;;;;;24.14;33.57;96957.28;10283392;28;20571;-54
2023/10/28 14:58:14;;;;;;;14.50;7.32;;;;;;;24.20;33.77;96980.78;10284266;28;20133;-54
2023/10/28 15:03:13;;;;;;;13.25;8.18;;;;;;;23.96;33.70;96993.81;10284066;28;20073;-53
2023/10/28 15:08:12;;;;;;;11.18;8.15;;;;;;;23.78;34.42;96995.94;10283847;28;20196;-53
2023/10/28 15:13:12;;;;;;;15.68;9.23;;;;;;;23.56;34.50;97009.72;10281970;28;20064;-53
2023/10/28 15:18:12;;;;;;;15.13;8.38;;;;;;;23.43;35.10;97014.94;10284867;28;20050;-53
2023/10/28 15:23:11;;;;;;;7.90;7.22;;;;;;;23.21;34.48;97028.72;10283274;28;20028;-55
2023/10/28 15:28:10;;;;;;;9.57;7.15;;;;;;;22.90;35.31;97035.06;10283975;28;20491;-55
2023/10/28 15:33:09;;;;;;;7.05;6.35;;;;;;;22.64;36.41;97034.84;10283510;28;20157;-53
2023/10/28 15:38:08;;;;;;;12.57;6.47;;;;;;;22.38;38.28;97029.34;10283015;28;20034;-53
2023/10/28 15:43:07;;;;;;;10.43;6.57;;;;;;;22.27;38.41;97050.31;10282183;28;20040;-53
2023/10/28 15:48:08;;;;;;;9.13;7.00;;;;;;;22.15;39.39;97058.94;10284093;28;20140;-54
2023/10/28 15:53:07;;;;;;;10.13;6.80;;;;;;;21.77;40.35;97054.06;10282472;28;20141;-53
2023/10/28 15:58:07;;;;;;;15.23;7.85;;;;;;;21.91;40.13;97072.63;10282864;28;20145;-53
2023/10/28 16:03:06;;;;;;;10.35;7.93;;;;;;;21.77;40.00;97081.34;10288106;28;20057;-54
2023/10/28 16:08:05;;;;;;;15.98;7.80;;;;;;;21.57;39.93;97079.00;10288694;28;20046;-54
2023/10/28 16:13:05;;;;;;;17.60;11.00;;;;;;;21.31;40.62;97083.06;10289302;28;20037;-54
2023/10/28 16:18:04;;;;;;;17.42;9.77;;;;;;;21.16;40.92;97094.44;10290588;28;20073;-54
2023/10/28 16:23:04;;;;;;;11.70;7.53;;;;;;;20.93;41.64;97112.31;10289374;28;20040;-54
2023/10/28 16:28:04;;;;;;;13.13;8.23;;;;;;;20.58;42.11;97109.75;10289494;28;20077;-54
2023/10/28 16:33:03;;;;;;;13.15;8.30;;;;;;;20.43;42.10;97118.47;10289498;28;20112;-54
2023/10/28 16:38:02;;;;;;;12.90;8.55;;;;;;;20.16;42.60;97118.88;10289240;28;20064;-54
2023/10/28 16:43:01;;;;;;;14.05;8.77;;;;;;;19.96;43.00;97130.41;10288675;28;20022;-53
2023/10/28 16:48:00;;;;;;;12.82;8.70;;;;;;;19.82;43.42;97133.69;10289013;28;20068;-53
2023/10/28 16:52:59;;;;;;;19.00;10.68;;;;;;;19.63;44.04;97146.03;10287711;28;20068;-53
2023/10/28 16:57:58;;;;;;;23.90;15.38;;;;;;;19.40;44.80;97145.28;10288669;28;20080;-55
2023/10/28 17:02:57;;;;;;;20.48;12.65;;;;;;;19.31;45.01;97155.38;10289342;28;20030;-54
2023/10/28 17:07:56;;;;;;;31.42;19.35;;;;;;;19.15;45.35;97155.22;10287194;28;20391;-55
2023/10/28 17:12:58;;;;;;;23.85;13.90;;;;;;;18.99;45.76;97171.69;10286589;28;20038;-55
2023/10/28 17:17:57;;;;;;;29.02;16.95;;;;;;;18.88;46.00;97181.81;10289044;28;20491;-54
2023/10/28 17:22:57;;;;;;;31.23;17.95;;;;;;;18.69;46.73;97188.78;10286866;28;20538;-54
2023/10/28 17:27:57;;;;;;;14.20;8.98;;;;;;;17.80;47.45;97174.00;10287628;28;20081;-54
2023/10/28 17:32:56;;;;;;;20.65;10.50;;;;;;;18.11;46.70;97195.50;10288286;28;20129;-52
2023/10/28 17:37:55;;;;;;;14.27;8.60;;;;;;;18.16;46.89;97216.34;10284574;28;20114;-54
2023/10/28 17:42:55;;;;;;;18.75;10.02;;;;;;;18.04;47.38;97220.31;10286405;28;20032;-54
2023/10/28 17:47:54;;;;;;;14.63;9.38;;;;;;;18.04;47.45;97229.94;10285880;28;20101;-54
2023/10/28 17:52:54;;;;;;;13.57;10.00;;;;;;;17.95;47.74;97244.28;10286146;28;20030;-55
2023/10/28 17:57:54;;;;;;;27.50;12.23;;;;;;;17.88;47.96;97248.06;10286711;28;20467;-54
2023/10/28 18:02:53;;;;;;;16.35;9.95;;;;;;;17.81;48.59;97251.84;10285680;28;20152;-54
2023/10/28 18:07:52;;;;;;;15.70;9.55;;;;;;;17.39;48.51;97197.41;10285403;28;20050;-54
2023/10/28 18:12:52;;;;;;;14.52;9.38;;;;;;;17.76;48.68;97273.84;10285749;28;20157;-54
2023/10/28 18:17:51;;;;;;;11.77;9.10;;;;;;;17.77;48.73;97288.69;10285566;28;20076;-55
2023/10/28 18:22:50;;;;;;;10.07;7.43;;;;;;;17.69;49.14;97303.00;10284850;28;20048;-54
2023/10/28 18:27:49;;;;;;;13.43;9.07;;;;;;;17.73;49.17;97308.06;10284471;28;20109;-54
2023/10/28 18:32:48;;;;;;;10.32;6.80;;;;;;;17.57;50.85;97306.91;10284964;28;20037;-54
2023/10/28 18:37:48;;;;;;;10.68;7.05;;;;;;;17.63;50.46;97327.66;10284950;28;20481;-54
2023/10/28 18:42:46;;;;;;;10.75;7.45;;;;;;;17.76;49.81;97323.72;10285449;28;20562;-54
2023/10/28 18:47:47;;;;;;;10.13;6.90;;;;;;;17.91;50.21;97338.03;10284979;28;20569;-53
2023/10/28 18:52:47;;;;;;;12.27;8.02;;;;;;;18.01;50.07;97335.06;10284525;28;20142;-53
2023/10/28 18:57:46;;;;;;;10.98;7.03;;;;;;;18.11;50.04;97339.09;10282549;28;20065;-53
2023/10/28 19:02:45;;;;;;;9.25;6.93;;;;;;;18.11;50.09;97350.44;10284044;28;20506;-54
2023/10/28 19:07:46;;;;;;;7.88;6.47;;;;;;;18.03;50.32;97357.72;10282991;28;20443;-53
2023/10/28 19:12:45;;;;;;;11.90;7.72;;;;;;;17.96;50.58;97364.13;10283201;28;20550;-53
2023/10/28 19:17:44;;;;;;;8.27;7.43;;;;;;;17.93;50.63;97372.13;10283916;28;20104;-54
2023/10/28 19:22:43;;;;;;;12.15;8.63;;;;;;;17.83;51.15;97373.38;10283768;28;20494;-53
2023/10/28 19:27:44;;;;;;;10.73;8.13;;;;;;;17.71;51.25;97375.50;10283495;28;20077;-53
2023/10/28 19:32:43;;;;;;;8.70;7.30;;;;;;;17.60;51.71;97392.53;10283226;28;20436;-53
2023/10/28 19:37:42;;;;;;;10.52;7.85;;;;;;;17.50;51.81;97384.13;10287568;28;20341;-54
2023/10/28 19:42:41;;;;;;;9.85;8.50;;;;;;;17.44;52.05;97389.56;10292089;28;20088;-53
2023/10/28 19:47:44;;;;;;;9.73;7.35;;;;;;;17.21;52.64;97388.56;10291180;28;20077;-53
2023/10/28 19:52:43;;;;;;;11.13;9.10;;;;;;;17.09;52.99;97397.72;10290997;28;20124;-53
2023/10/28 19:57:42;;;;;;;13.15;10.00;;;;;;;16.92;53.44;97407.91;10290619;28;20042;-54
2023/10/28 20:02:42;;;;;;;13.45;9.32;;;;;;;16.63;53.90;97403.53;10290437;28;20077;-54
2023/10/28 20:07:42;;;;;;;11.50;8.95;;;;;;;16.63;54.46;97416.63;10321528;28;20077;-53
2023/10/28 20:12:41;;;;;;;10.93;8.43;;;;;;;16.45;54.72;97413.66;10291482;28;20503;-54
2023/10/28 20:17:41;;;;;;;14.43;8.75;;;;;;;16.34;55.09;97410.50;10290036;28;20069;-54
2023/10/28 20:22:41;;;;;;;10.25;8.20;;;;;;;16.21;55.80;97430.97;10289914;28;20379;-54
2023/10/28 20:27:40;;;;;;;9.23;7.00;;;;;;;16.11;55.86;97432.09;10289361;28;20069;-54
2023/10/28 20:32:40;;;;;;;;;;;;;;;16.09;56.14;97431.28;10289596;28;20072;-52
2023/10/28 20:37:39;;;;;;;9.98;7.15;;;;;;;16.05;56.41;97427.91;10288464;28;20446;-52
2023/10/28 20:42:39;;;;;;;;;;;;;;;16.01;56.88;97438.50;10289435;28;20475;-54
2023/10/28 20:47:39;;;;;;;9.20;6.88;;;;;;;15.92;57.44;97434.38;10288053;28;19996;-55
2023/10/28 20:52:38;;;;;;;8.70;7.30;;;;;;;15.86;57.71;97427.56;10288422;28;20669;-54
2023/10/28 20:57:37;;;;;;;;;;;;;;;15.77;58.46;97435.63;10289483;28;20539;-54
2023/10/28 21:02:36;;;;;;;7.90;6.60;;;;;;;15.66;58.90;97441.16;10287376;28;20430;-54
2023/10/28 21:07:35;;;;;;;9.35;6.47;;;;;;;15.60;59.13;97429.97;10287499;28;20077;-55
2023/10/28 21:12:34;;;;;;;8.25;6.53;;;;;;;15.62;59.32;97449.09;10287808;28;20122;-53
2023/10/28 21:17:34;;;;;;;8.23;7.03;;;;;;;15.50;60.24;97452.06;10287918;28;20100;-56
2023/10/28 21:22:33;;;;;;;9.25;7.18;;;;;;;15.50;60.29;97457.28;10286637;28;20266;-55
2023/10/28 21:27:32;;;;;;;;;;;;;;;15.49;60.08;97453.81;10319936;28;20077;-53
2023/10/28 21:32:31;;;;;;;10.57;7.50;;;;;;;15.48;60.52;97465.16;10286602;28;19913;-53
2023/10/28 21:37:30;;;;;;;;;;;;;;;15.40;61.15;97459.28;10287179;28;20595;-54
2023/10/28 21:42:29;;;;;;;19.50;10.48;;;;;;;15.35;61.24;97474.22;10286814;28;19941;-54
2023/10/28 21:47:29;;;;;;;;;;;;;;;15.13;62.05;97459.06;10287448;28;20455;-54
2023/10/28 21:52:27;;;;;;;11.32;9.10;;;;;;;15.08;61.72;97463.53;10285160;28;19996;-54
2023/10/28 21:57:26;;;;;;;;;;;;;;;14.98;62.31;97449.81;10286553;28;20042;-53
2023/10/28 22:02:25;;;;;;;11.68;7.65;;;;;;;14.91;62.29;97468.28;10285547;28;21021;-53
2023/10/28 22:07:24;;;;;;;10.70;7.50;;;;;;;14.88;62.79;97473.59;10285197;28;20423;-53
2023/10/28 22:12:23;;;;;;;11.65;7.22;;;;;;;14.59;63.95;97467.22;10285388;28;20124;-52
2023/10/28 22:17:22;;;;;;;8.90;6.50;;;;;;;14.47;64.63;97473.56;10284291;28;20117;-52
2023/10/28 22:22:21;;;;;;;10.60;8.27;;;;;;;14.32;65.33;97464.31;10284131;28;20436;-53
2023/10/28 22:27:20;;;;;;;13.00;8.77;;;;;;;14.23;65.37;97469.72;10284934;28;20488;-54
2023/10/28 22:32:19;;;;;;;14.88;10.23;;;;;;;14.10;67.03;97470.84;10284592;28;20081;-53
2023/10/28 22:37:18;;;;;;;15.20;9.05;;;;;;;14.01;66.67;97476.22;10285114;28;20100;-54
2023/10/28 22:42:17;;;;;;;14.10;8.93;;;;;;;13.78;68.27;97482.75;10284737;28;20069;-54
2023/10/28 22:47:16;;;;;;;9.85;8.45;;;;;;;13.56;68.19;97490.06;10284290;28;20069;-54
2023/10/28 22:52:15;;;;;;;12.75;8.13;;;;;;;13.52;68.27;97478.81;10284408;28;20065;-54
2023/10/28 22:57:16;;;;;;;12.20;8.75;;;;;;;13.47;68.31;97487.59;10284327;28;20193;-54
2023/10/28 23:02:15;;;;;;;12.68;8.88;;;;;;;13.44;68.31;97491.09;10284524;28;20129;-55
2023/10/28 23:07:16;;;;;;;15.98;9.32;;;;;;;13.31;68.38;97497.44;10283924;28;20085;-54
2023/10/28 23:12:18;;;;;;;14.15;9.00;;;;;;;13.26;69.02;97505.31;10283303;28;20069;-55
2023/10/28 23:17:17;;;;;;;10.48;8.23;;;;;;;13.15;69.37;97500.25;10283918;28;20120;-54